sensor_id;sensor_type;location;lat;lon;timestamp;pressure;altitude;pressure_sealevel;temperature;humidity
40013;BME280;37387;42.672;23.334;2023-04-02T00:01:35;935.4;;;8.0;100.0
40013;BME280;37387;42.672;23.334;2023-04-02T00:02:37;935.4;;;8.1;100.0
40013;BME280;37387;42.672;23.334;2023-04-02T00:04:35;935.4;;;8.1;100.0
40013;BME280;37387;42.672;23.334;2023-04-02T00:11:36;935.4;;;8.2;99.0
40013;BME280;37387;42.672;23.334;2023-04-02T00:14:35;935.4;;;8.3;97.2
40013;BME280;37387;42.672;23.334;2023-04-02T00:15:36;935.4;;;8.2;97.2
40013;BME280;37387;42.672;23.334;2023-04-02T00:31:36;935.3;;;8.1;96.4
40013;BME280;37387;42.672;23.334;2023-04-02T00:41:35;935.1;;;8.2;93.8
40013;BME280;37387;42.672;23.334;2023-04-02T00:43:36;935.2;;;8.3;93.1
40013;BME280;37387;42.672;23.334;2023-04-02T00:46:38;935.2;;;8.4;89.8
40013;BME280;37387;42.672;23.334;2023-04-02T00:51:35;935.2;;;8.5;88.3
40013;BME280;37387;42.672;23.334;2023-04-02T00:59:41;935.2;;;8.4;87.5
40013;BME280;37387;42.672;23.334;2023-04-02T01:19:44;935.2;;;8.3;89.6
40013;BME280;37387;42.672;23.334;2023-04-02T01:26:41;935.4;;;8.2;89.1
40013;BME280;37387;42.672;23.334;2023-04-02T01:29:36;935.4;;;7.8;91.0
40013;BME280;37387;42.672;23.334;2023-04-02T01:30:35;935.0;;;7.7;96.3
40013;BME280;37387;42.672;23.334;2023-04-02T01:31:35;935.4;;;7.3;100.0
40013;BME280;37387;42.672;23.334;2023-04-02T01:32:35;935.4;;;7.0;100.0
40013;BME280;37387;42.672;23.334;2023-04-02T01:33:35;935.4;;;6.6;100.0
40013;BME280;37387;42.672;23.334;2023-04-02T01:34:35;935.4;;;6.3;100.0
40013;BME280;37387;42.672;23.334;2023-04-02T01:35:36;935.5;;;6.1;100.0
40013;BME280;37387;42.672;23.334;2023-04-02T01:39:39;935.4;;;6.0;100.0
40013;BME280;37387;42.672;23.334;2023-04-02T01:40:36;935.4;;;5.9;100.0
40013;BME280;37387;42.672;23.334;2023-04-02T01:43:36;935.4;;;5.8;100.0
40013;BME280;37387;42.672;23.334;2023-04-02T01:44:36;935.4;;;5.9;100.0
40013;BME280;37387;42.672;23.334;2023-04-02T01:55:38;935.3;;;5.8;100.0
40013;BME280;37387;42.672;23.334;2023-04-02T02:09:35;935.3;;;5.9;100.0
40013;BME280;37387;42.672;23.334;2023-04-02T02:27:41;935.3;;;6.0;100.0
40013;BME280;37387;42.672;23.334;2023-04-02T02:28:36;935.3;;;5.9;100.0
40013;BME280;37387;42.672;23.334;2023-04-02T02:29:36;935.3;;;6.0;100.0
40013;BME280;37387;42.672;23.334;2023-04-02T02:33:36;935.3;;;6.1;100.0
40013;BME280;37387;42.672;23.334;2023-04-02T02:38:40;935.3;;;6.2;100.0
40013;BME280;37387;42.672;23.334;2023-04-02T02:40:35;935.3;;;6.3;100.0
40013;BME280;37387;42.672;23.334;2023-04-02T02:47:35;935.3;;;6.4;100.0
40013;BME280;37387;42.672;23.334;2023-04-02T02:50:35;935.3;;;6.5;100.0
40013;BME280;37387;42.672;23.334;2023-04-02T02:51:38;935.3;;;6.4;100.0
40013;BME280;37387;42.672;23.334;2023-04-02T02:52:36;935.3;;;6.5;100.0
40013;BME280;37387;42.672;23.334;2023-04-02T02:58:35;935.4;;;6.6;100.0
40013;BME280;37387;42.672;23.334;2023-04-02T03:03:35;935.3;;;6.7;100.0
40013;BME280;37387;42.672;23.334;2023-04-02T03:07:35;935.3;;;6.6;100.0
40013;BME280;37387;42.672;23.334;2023-04-02T03:08:36;935.3;;;6.5;100.0
40013;BME280;37387;42.672;23.334;2023-04-02T03:09:37;935.3;;;6.3;100.0
40013;BME280;37387;42.672;23.334;2023-04-02T03:10:36;935.4;;;6.2;100.0
40013;BME280;37387;42.672;23.334;2023-04-02T03:11:36;935.3;;;6.1;100.0
40013;BME280;37387;42.672;23.334;2023-04-02T03:12:38;935.3;;;6.0;100.0
40013;BME280;37387;42.672;23.334;2023-04-02T03:13:36;935.3;;;5.8;100.0
40013;BME280;37387;42.672;23.334;2023-04-02T03:16:36;935.4;;;5.7;100.0
40013;BME280;37387;42.672;23.334;2023-04-02T03:18:37;935.4;;;5.6;100.0
40013;BME280;37387;42.672;23.334;2023-04-02T03:19:37;935.4;;;5.5;100.0
40013;BME280;37387;42.672;23.334;2023-04-02T03:21:36;935.4;;;5.4;100.0
40013;BME280;37387;42.672;23.334;2023-04-02T03:24:36;935.4;;;5.3;100.0
40013;BME280;37387;42.672;23.334;2023-04-02T03:27:36;935.4;;;5.4;100.0
40013;BME280;37387;42.672;23.334;2023-04-02T03:29:36;935.4;;;5.3;100.0
40013;BME280;37387;42.672;23.334;2023-04-02T03:33:36;935.5;;;5.2;100.0
40013;BME280;37387;42.672;23.334;2023-04-02T03:37:37;935.5;;;5.1;100.0
40013;BME280;37387;42.672;23.334;2023-04-02T03:38:35;935.5;;;5.0;100.0
40013;BME280;37387;42.672;23.334;2023-04-02T03:39:36;935.4;;;5.1;100.0
40013;BME280;37387;42.672;23.334;2023-04-02T03:40:36;935.5;;;5.0;100.0
40013;BME280;37387;42.672;23.334;2023-04-02T03:42:36;935.4;;;4.9;100.0
40013;BME280;37387;42.672;23.334;2023-04-02T03:46:36;935.4;;;4.8;100.0
40013;BME280;37387;42.672;23.334;2023-04-02T03:56:35;935.3;;;4.7;100.0
40013;BME280;37387;42.672;23.334;2023-04-02T03:59:36;935.5;;;4.6;100.0
40013;BME280;37387;42.672;23.334;2023-04-02T04:01:36;935.5;;;4.5;100.0
40013;BME280;37387;42.672;23.334;2023-04-02T04:09:35;935.5;;;4.6;100.0
40013;BME280;37387;42.672;23.334;2023-04-02T04:34:37;935.7;;;4.7;100.0
40013;BME280;37387;42.672;23.334;2023-04-02T04:37:35;935.8;;;4.8;100.0
40013;BME280;37387;42.672;23.334;2023-04-02T04:39:38;935.8;;;5.0;100.0
40013;BME280;37387;42.672;23.334;2023-04-02T04:40:35;935.8;;;4.9;100.0
40013;BME280;37387;42.672;23.334;2023-04-02T04:43:37;935.9;;;4.8;100.0
40013;BME280;37387;42.672;23.334;2023-04-02T04:44:38;935.9;;;5.0;100.0
40013;BME280;37387;42.672;23.334;2023-04-02T04:45:38;935.8;;;5.1;100.0
40013;BME280;37387;42.672;23.334;2023-04-02T04:46:36;935.8;;;5.3;100.0
40013;BME280;37387;42.672;23.334;2023-04-02T04:47:36;935.9;;;5.7;100.0
40013;BME280;37387;42.672;23.334;2023-04-02T04:48:35;935.9;;;6.2;100.0
40013;BME280;37387;42.672;23.334;2023-04-02T04:49:37;935.9;;;6.6;100.0
40013;BME280;37387;42.672;23.334;2023-04-02T04:50:36;936.0;;;7.2;100.0
40013;BME280;37387;42.672;23.334;2023-04-02T04:51:36;936.0;;;7.6;100.0
40013;BME280;37387;42.672;23.334;2023-04-02T04:53:41;936.0;;;8.5;100.0
40013;BME280;37387;42.672;23.334;2023-04-02T04:54:36;936.0;;;9.6;100.0
40013;BME280;37387;42.672;23.334;2023-04-02T04:55:36;936.1;;;10.4;100.0
40013;BME280;37387;42.672;23.334;2023-04-02T04:56:35;936.1;;;11.4;100.0
40013;BME280;37387;42.672;23.334;2023-04-02T04:57:35;936.2;;;12.0;84.1
40013;BME280;37387;42.672;23.334;2023-04-02T04:58:38;936.2;;;11.9;84.1
40013;BME280;37387;42.672;23.334;2023-04-02T04:59:39;936.2;;;12.8;80.8
40013;BME280;37387;42.672;23.334;2023-04-02T05:00:38;936.2;;;12.5;74.6
40013;BME280;37387;42.672;23.334;2023-04-02T05:01:36;936.1;;;12.4;70.7
40013;BME280;37387;42.672;23.334;2023-04-02T05:02:37;936.1;;;13.2;69.6
40013;BME280;37387;42.672;23.334;2023-04-02T05:03:36;936.1;;;13.3;66.5
40013;BME280;37387;42.672;23.334;2023-04-02T05:04:36;936.1;;;13.6;64.3
40013;BME280;37387;42.672;23.334;2023-04-02T05:05:36;936.2;;;14.7;60.3
40013;BME280;37387;42.672;23.334;2023-04-02T05:06:36;936.2;;;15.1;60.3
40013;BME280;37387;42.672;23.334;2023-04-02T05:07:41;936.1;;;14.8;58.4
40013;BME280;37387;42.672;23.334;2023-04-02T05:08:36;936.2;;;15.9;54.1
40013;BME280;37387;42.672;23.334;2023-04-02T05:09:36;936.2;;;15.8;54.1
40013;BME280;37387;42.672;23.334;2023-04-02T05:10:36;936.1;;;15.1;52.6
40013;BME280;37387;42.672;23.334;2023-04-02T05:11:37;936.1;;;15.0;54.0
40013;BME280;37387;42.672;23.334;2023-04-02T05:12:36;936.1;;;14.2;54.9
40013;BME280;37387;42.672;23.334;2023-04-02T05:13:36;936.2;;;14.5;57.4
40013;BME280;37387;42.672;23.334;2023-04-02T05:14:36;936.2;;;15.0;57.4
40013;BME280;37387;42.672;23.334;2023-04-02T05:16:35;936.2;;;16.1;56.4
40013;BME280;37387;42.672;23.334;2023-04-02T05:17:36;936.3;;;15.7;53.5
40013;BME280;37387;42.672;23.334;2023-04-02T05:18:36;936.3;;;16.1;52.3
40013;BME280;37387;42.672;23.334;2023-04-02T05:19:36;936.2;;;16.7;51.6
40013;BME280;37387;42.672;23.334;2023-04-02T05:20:36;936.3;;;17.8;46.8
40013;BME280;37387;42.672;23.334;2023-04-02T05:21:36;936.3;;;18.5;46.8
40013;BME280;37387;42.672;23.334;2023-04-02T05:22:37;936.3;;;19.2;45.2
40013;BME280;37387;42.672;23.334;2023-04-02T05:23:36;936.2;;;18.9;42.6
40013;BME280;37387;42.672;23.334;2023-04-02T05:24:37;936.2;;;19.3;42.0
40013;BME280;37387;42.672;23.334;2023-04-02T05:25:35;936.3;;;19.4;42.2
40013;BME280;37387;42.672;23.334;2023-04-02T05:26:36;936.3;;;18.9;42.0
40013;BME280;37387;42.672;23.334;2023-04-02T05:27:36;936.3;;;17.6;41.8
40013;BME280;37387;42.672;23.334;2023-04-02T05:28:37;936.3;;;17.7;44.5
40013;BME280;37387;42.672;23.334;2023-04-02T05:29:36;936.3;;;18.4;44.2
40013;BME280;37387;42.672;23.334;2023-04-02T05:30:41;936.3;;;18.7;42.8
40013;BME280;37387;42.672;23.334;2023-04-02T05:31:36;936.3;;;18.9;42.1
40013;BME280;37387;42.672;23.334;2023-04-02T05:32:35;936.4;;;18.5;42.7
40013;BME280;37387;42.672;23.334;2023-04-02T05:34:35;936.3;;;18.3;41.8
40013;BME280;37387;42.672;23.334;2023-04-02T05:35:36;936.3;;;18.1;41.6
40013;BME280;37387;42.672;23.334;2023-04-02T05:36:35;936.4;;;18.2;42.5
40013;BME280;37387;42.672;23.334;2023-04-02T05:38:36;936.4;;;18.4;42.2
40013;BME280;37387;42.672;23.334;2023-04-02T05:39:35;936.4;;;17.5;43.5
40013;BME280;37387;42.672;23.334;2023-04-02T05:40:37;936.4;;;18.0;43.5
40013;BME280;37387;42.672;23.334;2023-04-02T05:41:36;936.4;;;19.0;43.4
40013;BME280;37387;42.672;23.334;2023-04-02T05:42:35;936.4;;;19.1;41.3
40013;BME280;37387;42.672;23.334;2023-04-02T05:43:35;936.4;;;18.1;41.2
40013;BME280;37387;42.672;23.334;2023-04-02T05:44:35;936.4;;;17.1;42.5
40013;BME280;37387;42.672;23.334;2023-04-02T05:45:36;936.4;;;18.3;45.3
40013;BME280;37387;42.672;23.334;2023-04-02T05:46:36;936.4;;;18.5;43.1
40013;BME280;37387;42.672;23.334;2023-04-02T05:47:35;936.4;;;19.0;42.4
40013;BME280;37387;42.672;23.334;2023-04-02T05:48:36;936.4;;;19.8;41.4
40013;BME280;37387;42.672;23.334;2023-04-02T05:49:39;936.5;;;18.1;39.9
40013;BME280;37387;42.672;23.334;2023-04-02T05:50:36;936.4;;;17.3;42.9
40013;BME280;37387;42.672;23.334;2023-04-02T05:51:37;936.4;;;17.7;42.9
40013;BME280;37387;42.672;23.334;2023-04-02T05:52:37;936.5;;;19.0;42.0
40013;BME280;37387;42.672;23.334;2023-04-02T05:53:36;936.6;;;19.8;42.0
40013;BME280;37387;42.672;23.334;2023-04-02T05:54:36;936.6;;;20.4;38.7
40013;BME280;37387;42.672;23.334;2023-04-02T05:55:38;936.5;;;20.5;38.7
40013;BME280;37387;42.672;23.334;2023-04-02T05:56:36;936.5;;;20.9;38.3
40013;BME280;37387;42.672;23.334;2023-04-02T05:57:36;936.5;;;19.7;37.5
40013;BME280;37387;42.672;23.334;2023-04-02T05:58:36;936.6;;;20.5;39.3
40013;BME280;37387;42.672;23.334;2023-04-02T05:59:36;936.6;;;19.2;38.1
40013;BME280;37387;42.672;23.334;2023-04-02T06:01:36;936.5;;;19.8;40.1
40013;BME280;37387;42.672;23.334;2023-04-02T06:02:35;936.6;;;20.7;39.8
40013;BME280;37387;42.672;23.334;2023-04-02T06:04:38;936.6;;;20.0;38.1
40013;BME280;37387;42.672;23.334;2023-04-02T06:05:36;936.6;;;19.3;39.0
40013;BME280;37387;42.672;23.334;2023-04-02T06:06:41;936.6;;;19.4;40.4
40013;BME280;37387;42.672;23.334;2023-04-02T06:07:39;936.6;;;19.6;40.4
40013;BME280;37387;42.672;23.334;2023-04-02T06:08:37;936.6;;;20.0;40.2
40013;BME280;37387;42.672;23.334;2023-04-02T06:09:37;936.6;;;20.7;40.2
40013;BME280;37387;42.672;23.334;2023-04-02T06:10:36;936.5;;;21.2;38.7
40013;BME280;37387;42.672;23.334;2023-04-02T06:11:36;936.5;;;21.3;37.2
40013;BME280;37387;42.672;23.334;2023-04-02T06:12:36;936.6;;;20.3;36.8
40013;BME280;37387;42.672;23.334;2023-04-02T06:13:35;936.6;;;20.2;38.9
40013;BME280;37387;42.672;23.334;2023-04-02T06:14:35;936.5;;;19.0;38.9
40013;BME280;37387;42.672;23.334;2023-04-02T06:15:35;936.5;;;18.0;39.9
40013;BME280;37387;42.672;23.334;2023-04-02T06:16:35;936.5;;;18.6;42.1
40013;BME280;37387;42.672;23.334;2023-04-02T06:17:41;936.5;;;15.9;46.2
40013;BME280;37387;42.672;23.334;2023-04-02T06:19:36;936.5;;;17.2;47.5
40013;BME280;37387;42.672;23.334;2023-04-02T06:20:35;936.5;;;18.6;44.8
40013;BME280;37387;42.672;23.334;2023-04-02T06:21:39;936.6;;;19.4;42.7
40013;BME280;37387;42.672;23.334;2023-04-02T06:22:35;936.6;;;20.6;41.4
40013;BME280;37387;42.672;23.334;2023-04-02T06:23:36;936.6;;;21.0;39.2
40013;BME280;37387;42.672;23.334;2023-04-02T06:24:35;936.7;;;20.8;38.0
40013;BME280;37387;42.672;23.334;2023-04-02T06:25:36;936.7;;;21.0;38.0
40013;BME280;37387;42.672;23.334;2023-04-02T06:26:35;936.6;;;19.3;37.5
40013;BME280;37387;42.672;23.334;2023-04-02T06:27:35;936.6;;;19.5;40.1
40013;BME280;37387;42.672;23.334;2023-04-02T06:28:37;936.5;;;18.7;41.2
40013;BME280;37387;42.672;23.334;2023-04-02T06:29:36;936.5;;;18.5;41.2
40013;BME280;37387;42.672;23.334;2023-04-02T06:30:35;936.6;;;19.5;41.6
40013;BME280;37387;42.672;23.334;2023-04-02T06:33:35;936.6;;;20.6;39.8
40013;BME280;37387;42.672;23.334;2023-04-02T06:34:35;936.7;;;20.7;38.5
40013;BME280;37387;42.672;23.334;2023-04-02T06:35:36;936.6;;;19.5;37.9
40013;BME280;37387;42.672;23.334;2023-04-02T06:36:35;936.5;;;18.3;41.2
40013;BME280;37387;42.672;23.334;2023-04-02T06:37:36;936.6;;;18.5;41.1
40013;BME280;37387;42.672;23.334;2023-04-02T06:38:35;936.5;;;18.2;41.5
40013;BME280;37387;42.672;23.334;2023-04-02T06:39:35;936.5;;;19.3;41.5
40013;BME280;37387;42.672;23.334;2023-04-02T06:40:38;936.6;;;19.8;39.2
40013;BME280;37387;42.672;23.334;2023-04-02T06:41:35;936.6;;;20.1;39.2
40013;BME280;37387;42.672;23.334;2023-04-02T06:42:36;936.6;;;20.2;38.6
40013;BME280;37387;42.672;23.334;2023-04-02T06:44:35;936.6;;;19.8;38.5
40013;BME280;37387;42.672;23.334;2023-04-02T06:45:36;936.6;;;20.7;39.1
40013;BME280;37387;42.672;23.334;2023-04-02T06:46:36;936.6;;;20.5;38.3
40013;BME280;37387;42.672;23.334;2023-04-02T06:47:36;936.6;;;20.1;37.8
40013;BME280;37387;42.672;23.334;2023-04-02T06:48:35;936.6;;;20.3;38.5
40013;BME280;37387;42.672;23.334;2023-04-02T06:49:37;936.6;;;20.1;38.7
40013;BME280;37387;42.672;23.334;2023-04-02T06:50:37;936.7;;;20.8;38.1
40013;BME280;37387;42.672;23.334;2023-04-02T06:51:35;936.7;;;20.6;37.2
40013;BME280;37387;42.672;23.334;2023-04-02T06:52:36;936.7;;;20.5;38.0
40013;BME280;37387;42.672;23.334;2023-04-02T06:53:36;936.7;;;20.9;37.6
40013;BME280;37387;42.672;23.334;2023-04-02T06:54:35;936.7;;;21.6;37.7
40013;BME280;37387;42.672;23.334;2023-04-02T06:55:37;936.7;;;21.7;36.5
40013;BME280;37387;42.672;23.334;2023-04-02T06:56:37;936.7;;;22.6;36.1
40013;BME280;37387;42.672;23.334;2023-04-02T06:57:35;936.7;;;23.2;34.6
40013;BME280;37387;42.672;23.334;2023-04-02T06:58:35;936.7;;;22.8;33.6
40013;BME280;37387;42.672;23.334;2023-04-02T06:59:35;936.7;;;21.6;33.4
40013;BME280;37387;42.672;23.334;2023-04-02T07:00:35;936.7;;;20.3;34.8
40013;BME280;37387;42.672;23.334;2023-04-02T07:02:36;936.7;;;19.9;38.5
40013;BME280;37387;42.672;23.334;2023-04-02T07:03:35;936.7;;;20.4;38.5
40013;BME280;37387;42.672;23.334;2023-04-02T07:04:35;936.7;;;21.4;37.0
40013;BME280;37387;42.672;23.334;2023-04-02T07:06:35;936.7;;;19.8;35.1
40013;BME280;37387;42.672;23.334;2023-04-02T07:07:35;936.7;;;20.2;37.6
40013;BME280;37387;42.672;23.334;2023-04-02T07:08:35;936.8;;;18.5;37.1
40013;BME280;37387;42.672;23.334;2023-04-02T07:09:35;936.7;;;18.0;39.6
40013;BME280;37387;42.672;23.334;2023-04-02T07:10:35;936.7;;;18.5;40.8
40013;BME280;37387;42.672;23.334;2023-04-02T07:11:35;936.7;;;18.9;40.7
40013;BME280;37387;42.672;23.334;2023-04-02T07:12:35;936.7;;;19.0;40.3
40013;BME280;37387;42.672;23.334;2023-04-02T07:14:35;936.7;;;19.2;39.4
40013;BME280;37387;42.672;23.334;2023-04-02T07:15:35;936.7;;;19.4;39.5
40013;BME280;37387;42.672;23.334;2023-04-02T07:16:35;936.8;;;19.7;39.7
40013;BME280;37387;42.672;23.334;2023-04-02T07:17:35;936.8;;;19.3;38.9
40013;BME280;37387;42.672;23.334;2023-04-02T07:18:35;936.8;;;20.2;39.8
40013;BME280;37387;42.672;23.334;2023-04-02T07:19:35;936.8;;;21.1;36.9
40013;BME280;37387;42.672;23.334;2023-04-02T07:20:35;936.8;;;21.4;36.2
40013;BME280;37387;42.672;23.334;2023-04-02T07:21:35;936.8;;;21.5;36.2
40013;BME280;37387;42.672;23.334;2023-04-02T07:22:35;936.8;;;21.6;36.0
40013;BME280;37387;42.672;23.334;2023-04-02T07:23:35;936.9;;;22.2;34.7
40013;BME280;37387;42.672;23.334;2023-04-02T07:24:35;936.9;;;21.8;34.7
40013;BME280;37387;42.672;23.334;2023-04-02T07:25:35;936.9;;;21.9;35.2
40013;BME280;37387;42.672;23.334;2023-04-02T07:26:35;936.9;;;22.3;35.7
40013;BME280;37387;42.672;23.334;2023-04-02T07:28:35;936.9;;;21.0;34.6
40013;BME280;37387;42.672;23.334;2023-04-02T07:29:35;936.9;;;20.3;36.7
40013;BME280;37387;42.672;23.334;2023-04-02T07:30:35;936.9;;;20.9;37.9
40013;BME280;37387;42.672;23.334;2023-04-02T07:31:36;936.9;;;21.2;37.3
40013;BME280;37387;42.672;23.334;2023-04-02T07:32:35;936.9;;;20.7;37.3
40013;BME280;37387;42.672;23.334;2023-04-02T07:33:35;936.9;;;20.5;37.5
40013;BME280;37387;42.672;23.334;2023-04-02T07:34:35;936.9;;;21.7;36.3
40013;BME280;37387;42.672;23.334;2023-04-02T07:35:35;936.9;;;22.5;36.3
40013;BME280;37387;42.672;23.334;2023-04-02T07:36:35;936.9;;;22.9;34.9
40013;BME280;37387;42.672;23.334;2023-04-02T07:37:35;936.9;;;23.8;34.2
40013;BME280;37387;42.672;23.334;2023-04-02T07:38:35;936.9;;;24.9;33.2
40013;BME280;37387;42.672;23.334;2023-04-02T07:39:35;937.0;;;23.6;31.5
40013;BME280;37387;42.672;23.334;2023-04-02T07:40:35;936.9;;;22.6;34.2
40013;BME280;37387;42.672;23.334;2023-04-02T07:41:35;936.9;;;22.4;34.2
40013;BME280;37387;42.672;23.334;2023-04-02T07:42:35;936.9;;;22.5;35.0
40013;BME280;37387;42.672;23.334;2023-04-02T07:43:35;936.9;;;22.4;34.4
40013;BME280;37387;42.672;23.334;2023-04-02T07:44:35;936.9;;;22.8;34.5
40013;BME280;37387;42.672;23.334;2023-04-02T07:45:35;937.0;;;23.3;33.9
40013;BME280;37387;42.672;23.334;2023-04-02T07:46:35;937.0;;;23.5;33.1
40013;BME280;37387;42.672;23.334;2023-04-02T07:47:35;936.9;;;22.4;34.4
40013;BME280;37387;42.672;23.334;2023-04-02T07:48:35;936.9;;;22.3;34.6
40013;BME280;37387;42.672;23.334;2023-04-02T07:49:35;936.9;;;21.9;34.6
40013;BME280;37387;42.672;23.334;2023-04-02T07:50:35;936.9;;;20.7;35.5
40013;BME280;37387;42.672;23.334;2023-04-02T07:51:35;936.9;;;19.6;35.5
40013;BME280;37387;42.672;23.334;2023-04-02T07:52:37;936.8;;;20.1;36.8
40013;BME280;37387;42.672;23.334;2023-04-02T07:53:35;936.8;;;20.4;36.1
40013;BME280;37387;42.672;23.334;2023-04-02T07:56:35;936.9;;;20.8;35.4
40013;BME280;37387;42.672;23.334;2023-04-02T07:57:36;936.9;;;19.7;35.4
40013;BME280;37387;42.672;23.334;2023-04-02T07:58:35;936.7;;;19.1;36.3
40013;BME280;37387;42.672;23.334;2023-04-02T07:59:35;936.8;;;18.9;37.6
40013;BME280;37387;42.672;23.334;2023-04-02T08:00:35;936.8;;;17.7;37.6
40013;BME280;37387;42.672;23.334;2023-04-02T08:01:35;936.7;;;17.5;39.4
40013;BME280;37387;42.672;23.334;2023-04-02T08:03:35;936.8;;;17.2;40.6
40013;BME280;37387;42.672;23.334;2023-04-02T08:04:35;936.8;;;17.0;40.9
40013;BME280;37387;42.672;23.334;2023-04-02T08:05:35;936.8;;;17.2;41.4
40013;BME280;37387;42.672;23.334;2023-04-02T08:06:35;936.8;;;17.1;41.4
40013;BME280;37387;42.672;23.334;2023-04-02T08:08:35;936.8;;;17.2;41.6
40013;BME280;37387;42.672;23.334;2023-04-02T08:09:35;936.8;;;17.4;41.1
40013;BME280;37387;42.672;23.334;2023-04-02T08:10:35;936.8;;;17.7;40.6
40013;BME280;37387;42.672;23.334;2023-04-02T08:11:35;936.8;;;17.1;40.3
40013;BME280;37387;42.672;23.334;2023-04-02T08:12:35;936.8;;;17.0;40.8
40013;BME280;37387;42.672;23.334;2023-04-02T08:13:35;936.8;;;16.6;41.6
40013;BME280;37387;42.672;23.334;2023-04-02T08:16:43;936.9;;;16.4;42.3
40013;BME280;37387;42.672;23.334;2023-04-02T08:17:35;936.9;;;16.5;42.6
40013;BME280;37387;42.672;23.334;2023-04-02T08:18:35;936.9;;;16.8;42.9
40013;BME280;37387;42.672;23.334;2023-04-02T08:19:35;936.9;;;16.9;42.2
40013;BME280;37387;42.672;23.334;2023-04-02T08:20:35;936.9;;;17.2;41.5
40013;BME280;37387;42.672;23.334;2023-04-02T08:21:35;936.9;;;17.7;41.5
40013;BME280;37387;42.672;23.334;2023-04-02T08:22:35;936.9;;;18.4;40.8
40013;BME280;37387;42.672;23.334;2023-04-02T08:23:35;936.9;;;18.6;39.9
40013;BME280;37387;42.672;23.334;2023-04-02T08:24:35;936.9;;;19.2;39.1
40013;BME280;37387;42.672;23.334;2023-04-02T08:26:35;936.9;;;19.5;37.8
40013;BME280;37387;42.672;23.334;2023-04-02T08:27:35;937.0;;;20.2;37.8
40013;BME280;37387;42.672;23.334;2023-04-02T08:28:35;937.0;;;20.8;36.5
40013;BME280;37387;42.672;23.334;2023-04-02T08:29:35;937.0;;;21.3;35.3
40013;BME280;37387;42.672;23.334;2023-04-02T08:31:35;936.9;;;20.9;34.6
40013;BME280;37387;42.672;23.334;2023-04-02T08:32:35;937.0;;;21.2;35.5
40013;BME280;37387;42.672;23.334;2023-04-02T08:33:35;937.1;;;21.5;35.7
40013;BME280;37387;42.672;23.334;2023-04-02T08:34:35;937.0;;;21.0;34.8
40013;BME280;37387;42.672;23.334;2023-04-02T08:35:35;937.0;;;20.9;35.2
40013;BME280;37387;42.672;23.334;2023-04-02T08:36:36;937.0;;;21.5;35.3
40013;BME280;37387;42.672;23.334;2023-04-02T08:37:35;937.0;;;20.7;34.5
40013;BME280;37387;42.672;23.334;2023-04-02T08:38:35;937.0;;;19.8;34.7
40013;BME280;37387;42.672;23.334;2023-04-02T08:39:35;936.9;;;19.3;36.4
40013;BME280;37387;42.672;23.334;2023-04-02T08:40:36;936.9;;;19.8;36.7
40013;BME280;37387;42.672;23.334;2023-04-02T08:41:36;937.1;;;20.4;36.2
40013;BME280;37387;42.672;23.334;2023-04-02T08:42:36;937.1;;;21.1;34.5
40013;BME280;37387;42.672;23.334;2023-04-02T08:43:39;937.1;;;21.3;34.5
40013;BME280;37387;42.672;23.334;2023-04-02T08:44:38;937.1;;;22.3;33.6
40013;BME280;37387;42.672;23.334;2023-04-02T08:45:38;937.1;;;22.7;32.7
40013;BME280;37387;42.672;23.334;2023-04-02T08:46:36;937.1;;;22.9;31.6
40013;BME280;37387;42.672;23.334;2023-04-02T08:47:35;937.0;;;22.0;31.6
40013;BME280;37387;42.672;23.334;2023-04-02T08:48:36;937.0;;;22.5;31.9
40013;BME280;37387;42.672;23.334;2023-04-02T08:49:37;937.0;;;22.9;32.0
40013;BME280;37387;42.672;23.334;2023-04-02T08:50:36;937.1;;;22.4;31.9
40013;BME280;37387;42.672;23.334;2023-04-02T08:51:35;937.1;;;23.1;31.9
40013;BME280;37387;42.672;23.334;2023-04-02T08:52:36;937.1;;;22.7;32.0
40013;BME280;37387;42.672;23.334;2023-04-02T08:53:36;937.1;;;22.9;32.4
40013;BME280;37387;42.672;23.334;2023-04-02T08:54:35;937.1;;;23.5;32.5
40013;BME280;37387;42.672;23.334;2023-04-02T08:55:36;937.1;;;23.1;31.8
40013;BME280;37387;42.672;23.334;2023-04-02T08:56:35;937.1;;;22.7;32.3
40013;BME280;37387;42.672;23.334;2023-04-02T08:57:36;937.0;;;22.3;32.0
40013;BME280;37387;42.672;23.334;2023-04-02T08:58:38;937.0;;;23.1;31.9
40013;BME280;37387;42.672;23.334;2023-04-02T08:59:36;937.0;;;22.4;30.9
40013;BME280;37387;42.672;23.334;2023-04-02T09:00:36;937.0;;;21.2;33.1
40013;BME280;37387;42.672;23.334;2023-04-02T09:01:38;936.9;;;21.4;33.1
40013;BME280;37387;42.672;23.334;2023-04-02T09:02:36;937.0;;;22.0;33.0
40013;BME280;37387;42.672;23.334;2023-04-02T09:03:37;937.0;;;21.9;33.3
40013;BME280;37387;42.672;23.334;2023-04-02T09:04:35;937.0;;;21.6;33.3
40013;BME280;37387;42.672;23.334;2023-04-02T09:05:36;937.0;;;21.8;33.5
40013;BME280;37387;42.672;23.334;2023-04-02T09:06:35;936.9;;;22.1;33.1
40013;BME280;37387;42.672;23.334;2023-04-02T09:07:35;937.0;;;22.0;32.6
40013;BME280;37387;42.672;23.334;2023-04-02T09:08:35;937.0;;;21.8;33.3
40013;BME280;37387;42.672;23.334;2023-04-02T09:09:36;937.0;;;21.9;34.1
40013;BME280;37387;42.672;23.334;2023-04-02T09:10:36;937.0;;;21.3;34.2
40013;BME280;37387;42.672;23.334;2023-04-02T09:11:37;937.0;;;21.4;34.2
40013;BME280;37387;42.672;23.334;2023-04-02T09:12:35;937.0;;;22.0;33.3
40013;BME280;37387;42.672;23.334;2023-04-02T09:13:36;937.0;;;22.2;32.6
40013;BME280;37387;42.672;23.334;2023-04-02T09:14:39;936.9;;;22.5;32.2
40013;BME280;37387;42.672;23.334;2023-04-02T09:15:35;937.0;;;22.3;32.2
40013;BME280;37387;42.672;23.334;2023-04-02T09:16:39;936.9;;;22.8;31.5
40013;BME280;37387;42.672;23.334;2023-04-02T09:17:35;936.9;;;23.3;31.5
40013;BME280;37387;42.672;23.334;2023-04-02T09:18:35;936.9;;;22.9;31.2
40013;BME280;37387;42.672;23.334;2023-04-02T09:19:36;936.9;;;23.0;31.2
40013;BME280;37387;42.672;23.334;2023-04-02T09:20:35;937.0;;;23.3;31.0
40013;BME280;37387;42.672;23.334;2023-04-02T09:21:36;937.0;;;23.6;30.8
40013;BME280;37387;42.672;23.334;2023-04-02T09:22:35;937.0;;;23.7;30.0
40013;BME280;37387;42.672;23.334;2023-04-02T09:23:35;937.0;;;24.1;29.9
40013;BME280;37387;42.672;23.334;2023-04-02T09:24:35;937.0;;;23.7;29.9
40013;BME280;37387;42.672;23.334;2023-04-02T09:25:40;936.9;;;22.8;29.4
40013;BME280;37387;42.672;23.334;2023-04-02T09:26:35;936.9;;;23.0;30.4
40013;BME280;37387;42.672;23.334;2023-04-02T09:30:39;936.9;;;22.2;32.3
40013;BME280;37387;42.672;23.334;2023-04-02T09:31:35;936.9;;;22.1;33.3
40013;BME280;37387;42.672;23.334;2023-04-02T09:33:39;936.9;;;20.6;34.7
40013;BME280;37387;42.672;23.334;2023-04-02T09:35:35;936.9;;;20.9;34.8
40013;BME280;37387;42.672;23.334;2023-04-02T09:36:36;936.9;;;20.5;34.7
40013;BME280;37387;42.672;23.334;2023-04-02T09:37:35;936.9;;;20.2;34.7